createdAt,value
2019-02-04T00:01:00.290Z,6.70
2019-02-04T00:04:02.218Z,6.70
2019-02-04T00:07:03.776Z,6.60
2019-02-04T00:10:06.205Z,6.60
2019-02-04T00:13:08.557Z,6.60
2019-02-04T00:16:10.240Z,6.60
2019-02-04T00:19:13.756Z,6.60
2019-02-04T00:22:15.405Z,6.60
2019-02-04T00:25:17.195Z,6.60
2019-02-04T00:28:21.753Z,6.60
2019-02-04T00:31:23.775Z,6.50
2019-02-04T00:34:25.259Z,6.60
2019-02-04T00:37:26.767Z,6.50
2019-02-04T00:40:28.867Z,6.50
2019-02-04T00:43:30.494Z,6.50
2019-02-04T00:46:32.673Z,6.50
2019-02-04T00:49:34.369Z,6.50
2019-02-04T00:52:35.803Z,6.50
2019-02-04T00:55:37.424Z,6.50
2019-02-04T00:58:39.044Z,6.50
2019-02-04T01:01:40.983Z,6.40
2019-02-04T01:04:42.960Z,6.40
2019-02-04T01:07:47.089Z,6.40
2019-02-04T01:10:49.092Z,6.40
2019-02-04T01:13:50.647Z,6.40
2019-02-04T01:17:03.018Z,6.40
2019-02-04T01:19:55.903Z,6.40
2019-02-04T01:22:59.457Z,6.40
2019-02-04T01:26:01.143Z,6.30
2019-02-04T01:29:04.045Z,6.30
2019-02-04T01:32:05.697Z,6.40
2019-02-04T01:35:08.649Z,6.30
2019-02-04T01:38:10.228Z,6.30
2019-02-04T01:41:11.809Z,6.30
2019-02-04T01:44:13.326Z,6.30
2019-02-04T01:47:15.118Z,6.30
2019-02-04T01:50:20.767Z,6.30
2019-02-04T01:53:22.255Z,6.30
2019-02-04T01:56:26.449Z,6.30
2019-02-04T01:59:29.612Z,6.30
2019-02-04T02:02:31.139Z,6.30
2019-02-04T02:05:32.777Z,6.30
2019-02-04T02:08:34.258Z,6.30
2019-02-04T02:11:35.796Z,6.20
2019-02-04T02:14:37.375Z,6.20
2019-02-04T02:17:39.151Z,6.20
2019-02-04T02:20:40.807Z,6.20
2019-02-04T02:23:42.622Z,6.20
2019-02-04T02:26:44.398Z,6.20
2019-02-04T02:29:46.731Z,6.20
2019-02-04T02:32:48.416Z,6.20
2019-02-04T02:35:52.241Z,6.20
2019-02-04T02:38:55.366Z,6.10
2019-02-04T02:41:57.164Z,6.10
2019-02-04T02:44:58.826Z,6.10
2019-02-04T02:48:00.409Z,6.10
2019-02-04T02:51:02.938Z,6.10
2019-02-04T02:54:04.895Z,6.10
2019-02-04T02:57:06.790Z,6.10
2019-02-04T03:00:13.543Z,6.00
2019-02-04T03:03:15.083Z,6.00
2019-02-04T03:06:16.617Z,6.00
2019-02-04T03:09:18.309Z,6.00
2019-02-04T03:12:20.003Z,6.00
2019-02-04T03:15:21.760Z,6.00
2019-02-04T03:18:23.395Z,6.00
2019-02-04T03:21:26.512Z,6.00
2019-02-04T03:24:28.093Z,6.00
2019-02-04T03:27:30.808Z,6.00
2019-02-04T03:30:35.236Z,6.00
2019-02-04T03:33:38.216Z,5.90
2019-02-04T03:36:39.836Z,5.90
2019-02-04T03:39:41.635Z,5.90
2019-02-04T03:42:43.271Z,5.90
2019-02-04T03:45:47.002Z,5.80
2019-02-04T03:48:52.684Z,5.90
2019-02-04T03:51:51.316Z,5.80
2019-02-04T03:54:54.446Z,5.80
2019-02-04T03:57:57.782Z,5.80
2019-02-04T04:00:59.293Z,5.80
2019-02-04T04:04:00.801Z,5.80
2019-02-04T04:07:04.211Z,5.80
2019-02-04T04:10:06.299Z,5.70
2019-02-04T04:13:07.788Z,5.70
2019-02-04T04:16:12.050Z,5.70
2019-02-04T04:19:15.173Z,5.70
2019-02-04T04:22:17.034Z,5.70
2019-02-04T04:25:18.652Z,5.60
2019-02-04T04:28:20.166Z,5.60
2019-02-04T04:31:22.126Z,5.60
2019-02-04T04:34:23.672Z,5.50
2019-02-04T04:37:26.963Z,5.50
2019-02-04T04:40:28.626Z,5.50
2019-02-04T04:43:31.762Z,5.50
2019-02-04T04:46:33.264Z,5.40
2019-02-04T04:49:34.770Z,5.50
2019-02-04T04:52:39.978Z,5.50
2019-02-04T04:55:41.694Z,5.40
2019-02-04T04:58:45.682Z,5.40
2019-02-04T05:01:47.141Z,5.40
2019-02-04T05:04:48.701Z,5.30
2019-02-04T05:07:50.641Z,5.30
2019-02-04T05:10:52.227Z,5.30
2019-02-04T05:13:53.698Z,5.20
2019-02-04T05:16:55.227Z,5.30
2019-02-04T05:19:56.735Z,5.20
2019-02-04T05:22:58.630Z,5.20
2019-02-04T05:26:00.203Z,5.20
2019-02-04T05:29:03.791Z,5.20
2019-02-04T05:32:05.070Z,5.20
2019-02-04T05:35:06.731Z,5.10
2019-02-04T05:38:08.723Z,5.10
2019-02-04T05:41:10.235Z,5.10
2019-02-04T05:44:11.933Z,5.10
2019-02-04T05:47:13.806Z,5.10
2019-02-04T05:50:18.963Z,5.00
2019-02-04T05:53:23.744Z,5.00
2019-02-04T05:56:25.180Z,5.00
2019-02-04T05:59:26.804Z,5.00
2019-02-04T06:02:28.664Z,4.90
2019-02-04T06:05:31.467Z,4.90
2019-02-04T06:08:33.348Z,4.90
2019-02-04T06:11:34.841Z,4.90
2019-02-04T06:14:36.378Z,4.80
2019-02-04T06:17:40.410Z,4.80
2019-02-04T06:20:41.990Z,4.80
2019-02-04T06:23:43.638Z,4.80
2019-02-04T06:26:45.180Z,4.70
2019-02-04T06:29:46.837Z,4.80
2019-02-04T06:32:48.882Z,4.80
2019-02-04T06:35:52.734Z,4.70
2019-02-04T06:38:55.254Z,4.70
2019-02-04T06:41:56.838Z,4.70
2019-02-04T06:44:58.251Z,4.60
2019-02-04T06:47:59.713Z,4.60
2019-02-04T06:51:01.301Z,4.60
2019-02-04T06:54:02.885Z,4.60
2019-02-04T06:57:04.691Z,4.60
2019-02-04T07:00:08.968Z,4.60
2019-02-04T07:03:10.608Z,4.50
2019-02-04T07:06:12.157Z,4.50
2019-02-04T07:09:13.945Z,4.50
2019-02-04T07:12:16.060Z,4.60
2019-02-04T07:15:17.569Z,4.60
2019-02-04T07:18:22.757Z,4.60
2019-02-04T07:21:24.393Z,4.60
2019-02-04T07:24:26.127Z,4.50
2019-02-04T07:27:27.617Z,4.60
2019-02-04T07:30:32.535Z,4.50
2019-02-04T07:33:34.267Z,4.50
2019-02-04T07:36:35.776Z,4.50
2019-02-04T07:39:37.275Z,4.60
2019-02-04T07:42:39.426Z,4.60
2019-02-04T07:45:42.599Z,4.60
2019-02-04T07:48:46.177Z,4.60
2019-02-04T07:51:50.413Z,4.60
2019-02-04T07:54:51.365Z,4.60
2019-02-04T07:57:52.939Z,4.70
2019-02-04T08:00:55.958Z,4.70
2019-02-04T08:03:57.741Z,4.70
2019-02-04T08:06:59.677Z,4.80
2019-02-04T08:10:01.334Z,4.90
2019-02-04T08:13:02.858Z,5.00
2019-02-04T08:16:04.749Z,5.10
2019-02-04T08:19:07.612Z,5.10
2019-02-04T08:22:10.037Z,5.20
2019-02-04T08:25:13.302Z,5.20
2019-02-04T08:28:14.761Z,5.30
2019-02-04T08:31:16.214Z,5.30
2019-02-04T08:34:18.127Z,5.30
2019-02-04T08:37:20.642Z,5.30
2019-02-04T08:40:22.332Z,5.40
2019-02-04T08:43:24.345Z,5.40
2019-02-04T08:46:25.915Z,5.40
2019-02-04T08:49:28.700Z,5.40
2019-02-04T08:52:30.363Z,5.40
2019-02-04T08:55:31.821Z,5.40
2019-02-04T08:58:35.482Z,5.50
2019-02-04T09:01:36.913Z,5.50
2019-02-04T09:04:38.454Z,5.60
2019-02-04T09:07:40.318Z,5.60
2019-02-04T09:10:41.841Z,5.60
2019-02-04T09:13:43.540Z,5.70
2019-02-04T09:16:44.997Z,5.80
2019-02-04T09:19:46.864Z,5.90
2019-02-04T09:22:48.531Z,5.90
2019-02-04T09:25:51.064Z,6.00
2019-02-04T09:28:52.621Z,6.10
2019-02-04T09:31:54.132Z,6.20
2019-02-04T09:34:56.074Z,6.20
2019-02-04T09:37:57.598Z,6.40
2019-02-04T09:40:59.214Z,6.50
2019-02-04T09:44:00.694Z,6.60
2019-02-04T09:47:02.421Z,6.70
2019-02-04T09:50:04.623Z,6.90
2019-02-04T09:53:06.709Z,7.00
2019-02-04T09:56:08.599Z,7.10
2019-02-04T09:59:10.182Z,7.30
2019-02-04T10:02:12.461Z,7.40
2019-02-04T10:05:20.251Z,7.50
2019-02-04T10:08:23.005Z,7.70
2019-02-04T10:11:24.559Z,7.90
2019-02-04T10:14:27.223Z,8.00
2019-02-04T10:17:28.782Z,8.10
2019-02-04T10:20:34.086Z,8.20
2019-02-04T10:23:34.102Z,8.40
2019-02-04T10:26:35.750Z,8.50
2019-02-04T10:29:37.279Z,8.60
2019-02-04T10:32:39.339Z,8.70
2019-02-04T10:35:42.516Z,8.90
2019-02-04T10:38:44.105Z,9.00
2019-02-04T10:41:45.845Z,9.10
2019-02-04T10:44:47.459Z,9.20
2019-02-04T10:47:49.267Z,9.40
2019-02-04T10:50:50.801Z,9.50
2019-02-04T10:53:52.341Z,9.60
2019-02-04T10:56:54.018Z,9.70
2019-02-04T10:59:55.796Z,9.90
2019-02-04T11:02:57.490Z,10.10
2019-02-04T11:05:59.237Z,10.20
2019-02-04T11:09:00.907Z,10.40
2019-02-04T11:12:04.222Z,10.50
2019-02-04T11:15:08.907Z,10.70
2019-02-04T11:18:11.406Z,10.90
2019-02-04T11:21:13.490Z,11.10
2019-02-04T11:24:15.359Z,11.30
2019-02-04T11:27:17.410Z,11.50
2019-02-04T11:30:31.843Z,11.60
2019-02-04T11:33:33.766Z,11.80
2019-02-04T11:36:35.493Z,11.90
2019-02-04T11:39:37.073Z,12.10
2019-02-04T11:42:41.938Z,12.30
2019-02-04T11:45:43.684Z,12.50
2019-02-04T11:48:45.349Z,12.60
2019-02-04T11:51:47.293Z,12.80
2019-02-04T11:54:48.791Z,13.00
2019-02-04T11:57:50.368Z,13.20
2019-02-04T12:00:52.425Z,13.20
2019-02-04T12:03:54.065Z,13.40
2019-02-04T12:06:55.644Z,13.30
2019-02-04T12:09:57.464Z,12.90
2019-02-04T12:13:01.426Z,12.70
2019-02-04T12:16:03.164Z,12.50
2019-02-04T12:19:05.107Z,12.30
2019-02-04T12:22:06.607Z,12.30
2019-02-04T12:25:11.551Z,12.40
2019-02-04T12:28:14.702Z,12.80
2019-02-04T12:31:16.452Z,13.30
2019-02-04T12:34:18.352Z,13.70
2019-02-04T12:37:19.878Z,14.00
2019-02-04T12:40:21.610Z,14.30
2019-02-04T12:43:23.659Z,14.70
2019-02-04T12:46:25.107Z,14.90
2019-02-04T12:49:26.679Z,15.20
2019-02-04T12:52:28.293Z,15.60
2019-02-04T12:55:30.722Z,15.90
2019-02-04T12:58:32.581Z,16.30
2019-02-04T13:01:34.204Z,16.60
2019-02-04T13:04:35.721Z,17.00
2019-02-04T13:07:37.235Z,17.30
2019-02-04T13:10:39.290Z,17.60
2019-02-04T13:13:40.975Z,17.90
2019-02-04T13:16:42.593Z,18.20
2019-02-04T13:19:44.226Z,18.60
2019-02-04T13:22:48.895Z,18.90
2019-02-04T13:25:50.150Z,19.20
2019-02-04T13:28:51.748Z,19.50
2019-02-04T13:31:53.304Z,19.80
2019-02-04T13:34:54.754Z,20.00
2019-02-04T13:37:56.779Z,20.20
2019-02-04T13:41:07.537Z,20.50
2019-02-04T13:44:01.502Z,20.70
2019-02-04T13:47:05.679Z,21.00
2019-02-04T13:50:07.394Z,21.20
2019-02-04T13:53:09.669Z,21.50
2019-02-04T13:56:11.176Z,21.70
2019-02-04T13:59:12.772Z,21.90
2019-02-04T14:02:14.332Z,22.00
2019-02-04T14:05:16.438Z,22.10
2019-02-04T14:08:18.009Z,22.00
2019-02-04T14:11:19.513Z,21.00
2019-02-04T14:14:20.997Z,20.80
2019-02-04T14:17:24.459Z,21.10
2019-02-04T14:20:26.581Z,21.40
2019-02-04T14:23:28.174Z,21.50
2019-02-04T14:26:29.998Z,21.60
2019-02-04T14:29:33.764Z,21.60
2019-02-04T14:32:34.713Z,21.60
2019-02-04T14:35:36.266Z,21.70
2019-02-04T14:38:37.783Z,21.70
2019-02-04T14:41:39.319Z,21.70
2019-02-04T14:45:32.160Z,21.70
2019-02-04T14:49:27.578Z,21.70
2019-02-04T14:53:19.161Z,21.60
2019-02-04T14:56:57.608Z,21.40
2019-02-04T15:00:44.235Z,21.30
2019-02-04T15:04:29.407Z,21.30
2019-02-04T15:08:33.252Z,21.20
2019-02-04T15:11:46.997Z,21.10
2019-02-04T15:15:55.863Z,21.00
2019-02-04T15:20:02.150Z,21.00
2019-02-04T15:24:08.748Z,20.90
2019-02-04T15:27:51.721Z,20.90
2019-02-04T15:31:24.447Z,20.80
2019-02-04T15:35:26.219Z,20.70
2019-02-04T15:38:59.019Z,20.60
2019-02-04T15:43:00.776Z,20.50
2019-02-04T15:46:45.192Z,20.50
2019-02-04T15:50:53.109Z,20.30
2019-02-04T15:53:54.825Z,20.30
2019-02-04T15:57:01.375Z,20.20
2019-02-04T16:00:02.942Z,20.10
2019-02-04T16:03:04.661Z,20.20
2019-02-04T16:06:06.533Z,20.10
2019-02-04T16:09:09.082Z,20.00
2019-02-04T16:12:10.651Z,19.90
2019-02-04T16:15:14.342Z,19.80
2019-02-04T16:18:16.214Z,19.80
2019-02-04T16:21:18.825Z,19.70
2019-02-04T16:24:21.188Z,19.60
2019-02-04T16:27:25.494Z,19.50
2019-02-04T16:30:27.235Z,19.40
2019-02-04T16:33:29.109Z,19.30
2019-02-04T16:36:30.830Z,19.30
2019-02-04T16:39:33.081Z,19.20
2019-02-04T16:42:37.322Z,19.10
2019-02-04T16:45:38.897Z,19.00
2019-02-04T16:48:40.462Z,18.90
2019-02-04T16:51:42.725Z,18.80
2019-02-04T16:54:44.487Z,18.60
2019-02-04T16:57:46.217Z,18.50
2019-02-04T17:00:47.996Z,18.40
2019-02-04T17:03:49.581Z,18.30
2019-02-04T17:06:51.300Z,18.20
2019-02-04T17:09:52.979Z,18.10
2019-02-04T17:12:54.825Z,18.00
2019-02-04T17:15:56.743Z,17.90
2019-02-04T17:18:58.379Z,17.80
2019-02-04T17:22:01.229Z,17.70
2019-02-04T17:25:02.866Z,17.60
2019-02-04T17:28:06.421Z,17.50
2019-02-04T17:31:08.037Z,17.40
2019-02-04T17:34:09.719Z,17.20
2019-02-04T17:37:11.565Z,17.10
2019-02-04T17:40:17.804Z,17.00
2019-02-04T17:43:19.412Z,16.90
2019-02-04T17:46:21.070Z,16.90
2019-02-04T17:49:22.774Z,16.80
2019-02-04T17:52:24.539Z,16.70
2019-02-04T17:55:26.791Z,16.60
2019-02-04T17:58:29.029Z,16.50
2019-02-04T18:01:30.699Z,16.40
2019-02-04T18:04:32.389Z,16.30
2019-02-04T18:07:34.253Z,16.20
2019-02-04T18:10:36.236Z,16.10
2019-02-04T18:13:38.036Z,16.10
2019-02-04T18:16:39.892Z,16.00
2019-02-04T18:19:41.639Z,15.90
2019-02-04T18:22:43.265Z,15.90
2019-02-04T18:25:44.922Z,15.80
2019-02-04T18:28:48.897Z,15.70
2019-02-04T18:31:52.250Z,15.60
2019-02-04T18:34:53.768Z,15.60
2019-02-04T18:37:55.946Z,15.40
2019-02-04T18:40:58.658Z,15.30
2019-02-04T18:44:00.508Z,15.30
2019-02-04T18:47:02.413Z,15.20
2019-02-04T18:50:05.989Z,15.10
2019-02-04T18:53:08.293Z,15.10
2019-02-04T18:56:10.012Z,15.00
2019-02-04T18:59:11.751Z,14.90
2019-02-04T19:02:15.133Z,14.80
2019-02-04T19:05:17.075Z,14.80
2019-02-04T19:08:23.945Z,14.70
2019-02-04T19:11:26.048Z,14.70
2019-02-04T19:14:27.730Z,14.60
2019-02-04T19:17:29.495Z,14.50
2019-02-04T19:20:31.463Z,14.50
2019-02-04T19:23:33.244Z,14.40
2019-02-04T19:26:35.605Z,14.30
2019-02-04T19:29:37.645Z,14.30
2019-02-04T19:33:12.175Z,14.20
2019-02-04T19:35:45.076Z,14.10
2019-02-04T19:38:46.875Z,14.10
2019-02-04T19:41:51.319Z,14.00
2019-02-04T19:44:53.079Z,13.90
2019-02-04T19:47:54.964Z,13.90
2019-02-04T19:50:56.819Z,13.80
2019-02-04T19:53:58.807Z,13.80
2019-02-04T19:57:00.501Z,13.70
2019-02-04T20:00:02.580Z,13.60
2019-02-04T20:03:06.122Z,13.60
2019-02-04T20:06:09.216Z,13.50
2019-02-04T20:09:12.429Z,13.50
2019-02-04T20:12:14.241Z,13.40
2019-02-04T20:15:21.038Z,13.30
2019-02-04T20:18:22.929Z,13.30
2019-02-04T20:21:25.130Z,13.20
2019-02-04T20:24:33.370Z,13.20
2019-02-04T20:27:30.801Z,13.20
2019-02-04T20:30:45.429Z,13.10
2019-02-04T20:33:39.100Z,13.00
2019-02-04T20:36:41.089Z,13.00
2019-02-04T20:39:43.046Z,12.90
2019-02-04T20:42:44.865Z,12.90
2019-02-04T20:45:46.768Z,12.90
2019-02-04T20:48:49.765Z,12.80
2019-02-04T20:51:53.070Z,12.80
2019-02-04T20:54:54.883Z,12.70
2019-02-04T20:57:58.261Z,12.70
2019-02-04T21:00:59.969Z,12.60
2019-02-04T21:04:01.752Z,12.60
2019-02-04T21:07:03.519Z,12.50
2019-02-04T21:10:07.748Z,12.50
2019-02-04T21:13:09.478Z,12.50
2019-02-04T21:16:12.438Z,12.40
2019-02-04T21:19:14.366Z,12.30
2019-02-04T21:22:16.063Z,12.30
2019-02-04T21:25:19.285Z,12.30
2019-02-04T21:28:21.489Z,12.20
2019-02-04T21:31:23.574Z,12.20
2019-02-04T21:34:26.452Z,12.20
2019-02-04T21:37:29.533Z,12.10
2019-02-04T21:40:44.241Z,12.10
2019-02-04T21:43:45.998Z,12.10
2019-02-04T21:46:47.933Z,12.00
2019-02-04T21:49:49.896Z,12.00
2019-02-04T21:52:52.030Z,11.90
2019-02-04T21:55:55.215Z,11.90
2019-02-04T21:58:56.969Z,11.80
2019-02-04T22:01:58.778Z,11.80
2019-02-04T22:05:00.624Z,11.70
2019-02-04T22:08:04.111Z,11.70
2019-02-04T22:11:06.101Z,11.70
2019-02-04T22:14:09.304Z,11.60
2019-02-04T22:17:11.226Z,11.60
2019-02-04T22:20:17.254Z,11.60
2019-02-04T22:23:19.099Z,11.50
2019-02-04T22:26:21.196Z,11.50
2019-02-04T22:29:24.658Z,11.50
2019-02-04T22:32:26.322Z,11.40
2019-02-04T22:35:30.308Z,11.40
2019-02-04T22:38:32.279Z,11.40
2019-02-04T22:41:34.040Z,11.30
2019-02-04T22:44:35.721Z,11.30
2019-02-04T22:47:37.316Z,11.20
2019-02-04T22:50:39.246Z,11.20
2019-02-04T22:53:40.918Z,11.20
2019-02-04T22:56:42.627Z,11.20
2019-02-04T22:59:44.353Z,11.10
2019-02-04T23:02:45.956Z,11.10
2019-02-04T23:05:47.613Z,11.00
2019-02-04T23:08:49.052Z,11.00
2019-02-04T23:11:52.942Z,11.00
2019-02-04T23:14:54.648Z,10.90
2019-02-04T23:17:56.170Z,10.90
2019-02-04T23:20:57.642Z,10.90
2019-02-04T23:23:59.046Z,10.80
2019-02-04T23:27:00.619Z,10.80
2019-02-04T23:30:02.351Z,10.70
2019-02-04T23:33:05.520Z,10.70
2019-02-04T23:36:08.032Z,10.60
2019-02-04T23:39:11.089Z,10.60
2019-02-04T23:42:12.897Z,10.60
2019-02-04T23:45:14.512Z,10.60
2019-02-04T23:48:15.926Z,10.50
2019-02-04T23:51:17.455Z,10.40
2019-02-04T23:54:19.071Z,10.40
2019-02-04T23:57:20.856Z,10.40
